sensor_id;sensor_type;location;lat;lon;timestamp;temperature;humidity
37050;DHT22;22958;51.232;6.826;2022-08-19T00:02:21;19.60;99.90
37050;DHT22;22958;51.232;6.826;2022-08-19T00:04:47;19.60;99.90
37050;DHT22;22958;51.232;6.826;2022-08-19T00:07:17;19.60;99.90
37050;DHT22;22958;51.232;6.826;2022-08-19T00:09:43;19.60;99.90
37050;DHT22;22958;51.232;6.826;2022-08-19T00:12:08;19.60;99.90
37050;DHT22;22958;51.232;6.826;2022-08-19T00:14:34;19.50;99.90
37050;DHT22;22958;51.232;6.826;2022-08-19T00:17:00;19.50;99.90
37050;DHT22;22958;51.232;6.826;2022-08-19T00:19:26;19.50;99.90
37050;DHT22;22958;51.232;6.826;2022-08-19T00:21:52;19.40;99.90
37050;DHT22;22958;51.232;6.826;2022-08-19T00:24:18;19.40;99.90
37050;DHT22;22958;51.232;6.826;2022-08-19T00:26:44;19.40;99.90
37050;DHT22;22958;51.232;6.826;2022-08-19T00:29:11;19.30;99.90
37050;DHT22;22958;51.232;6.826;2022-08-19T00:31:37;19.30;99.90
37050;DHT22;22958;51.232;6.826;2022-08-19T00:34:02;19.30;99.90
37050;DHT22;22958;51.232;6.826;2022-08-19T00:36:28;19.30;99.90
37050;DHT22;22958;51.232;6.826;2022-08-19T00:38:54;19.20;99.90
37050;DHT22;22958;51.232;6.826;2022-08-19T00:41:21;19.30;99.90
37050;DHT22;22958;51.232;6.826;2022-08-19T00:44:00;19.30;99.90
37050;DHT22;22958;51.232;6.826;2022-08-19T00:46:26;19.30;99.90
37050;DHT22;22958;51.232;6.826;2022-08-19T00:48:51;19.20;99.90
37050;DHT22;22958;51.232;6.826;2022-08-19T00:51:17;19.20;99.90
37050;DHT22;22958;51.232;6.826;2022-08-19T00:53:42;19.10;99.90
37050;DHT22;22958;51.232;6.826;2022-08-19T00:56:08;19.10;99.90
37050;DHT22;22958;51.232;6.826;2022-08-19T00:58:34;19.10;99.90
37050;DHT22;22958;51.232;6.826;2022-08-19T01:01:00;19.10;99.90
37050;DHT22;22958;51.232;6.826;2022-08-19T01:03:26;19.10;99.90
37050;DHT22;22958;51.232;6.826;2022-08-19T01:05:51;19.10;99.90
37050;DHT22;22958;51.232;6.826;2022-08-19T01:08:19;19.00;99.90
37050;DHT22;22958;51.232;6.826;2022-08-19T01:10:46;18.90;99.90
37050;DHT22;22958;51.232;6.826;2022-08-19T01:13:14;18.80;99.90
37050;DHT22;22958;51.232;6.826;2022-08-19T01:15:43;18.80;99.90
37050;DHT22;22958;51.232;6.826;2022-08-19T01:18:11;18.70;99.90
37050;DHT22;22958;51.232;6.826;2022-08-19T01:20:37;18.70;99.90
37050;DHT22;22958;51.232;6.826;2022-08-19T01:23:02;18.70;99.90
37050;DHT22;22958;51.232;6.826;2022-08-19T01:25:32;18.80;99.90
37050;DHT22;22958;51.232;6.826;2022-08-19T01:27:58;18.80;99.90
37050;DHT22;22958;51.232;6.826;2022-08-19T01:30:25;18.80;99.90
37050;DHT22;22958;51.232;6.826;2022-08-19T01:32:51;18.70;99.90
37050;DHT22;22958;51.232;6.826;2022-08-19T01:35:17;18.70;99.90
37050;DHT22;22958;51.232;6.826;2022-08-19T01:37:44;18.60;99.90
37050;DHT22;22958;51.232;6.826;2022-08-19T01:40:10;18.50;99.90
37050;DHT22;22958;51.232;6.826;2022-08-19T01:42:36;18.50;99.90
37050;DHT22;22958;51.232;6.826;2022-08-19T01:45:02;18.50;99.90
37050;DHT22;22958;51.232;6.826;2022-08-19T01:47:28;18.40;99.90
37050;DHT22;22958;51.232;6.826;2022-08-19T01:49:53;18.40;99.90
37050;DHT22;22958;51.232;6.826;2022-08-19T01:52:19;18.50;99.90
37050;DHT22;22958;51.232;6.826;2022-08-19T01:54:44;18.50;99.90
37050;DHT22;22958;51.232;6.826;2022-08-19T01:57:10;18.50;99.90
37050;DHT22;22958;51.232;6.826;2022-08-19T01:59:37;18.50;99.90
37050;DHT22;22958;51.232;6.826;2022-08-19T02:02:04;18.50;99.90
37050;DHT22;22958;51.232;6.826;2022-08-19T02:04:32;18.50;99.90
37050;DHT22;22958;51.232;6.826;2022-08-19T02:06:58;18.60;99.90
37050;DHT22;22958;51.232;6.826;2022-08-19T02:09:23;18.60;99.90
37050;DHT22;22958;51.232;6.826;2022-08-19T02:11:48;18.50;99.90
37050;DHT22;22958;51.232;6.826;2022-08-19T02:14:14;18.40;99.90
37050;DHT22;22958;51.232;6.826;2022-08-19T02:16:40;18.30;99.90
37050;DHT22;22958;51.232;6.826;2022-08-19T02:19:06;18.20;99.90
37050;DHT22;22958;51.232;6.826;2022-08-19T02:21:31;18.10;99.90
37050;DHT22;22958;51.232;6.826;2022-08-19T02:23:57;18.20;99.90
37050;DHT22;22958;51.232;6.826;2022-08-19T02:26:23;18.20;99.90
37050;DHT22;22958;51.232;6.826;2022-08-19T02:28:49;18.20;99.90
37050;DHT22;22958;51.232;6.826;2022-08-19T02:31:16;18.20;99.90
37050;DHT22;22958;51.232;6.826;2022-08-19T02:33:42;18.20;99.90
37050;DHT22;22958;51.232;6.826;2022-08-19T02:36:08;18.20;99.90
37050;DHT22;22958;51.232;6.826;2022-08-19T02:38:34;18.20;99.90
37050;DHT22;22958;51.232;6.826;2022-08-19T02:41:01;18.10;99.90
37050;DHT22;22958;51.232;6.826;2022-08-19T02:43:27;18.10;99.90
37050;DHT22;22958;51.232;6.826;2022-08-19T02:45:54;18.10;99.90
37050;DHT22;22958;51.232;6.826;2022-08-19T02:48:20;18.10;99.90
37050;DHT22;22958;51.232;6.826;2022-08-19T02:50:45;18.20;99.90
37050;DHT22;22958;51.232;6.826;2022-08-19T02:53:11;18.20;99.90
37050;DHT22;22958;51.232;6.826;2022-08-19T02:55:42;18.20;99.90
37050;DHT22;22958;51.232;6.826;2022-08-19T02:58:08;18.10;99.90
37050;DHT22;22958;51.232;6.826;2022-08-19T03:00:33;18.10;99.90
37050;DHT22;22958;51.232;6.826;2022-08-19T03:02:59;18.10;99.90
37050;DHT22;22958;51.232;6.826;2022-08-19T03:05:25;18.00;99.90
37050;DHT22;22958;51.232;6.826;2022-08-19T03:07:51;18.00;99.90
37050;DHT22;22958;51.232;6.826;2022-08-19T03:10:17;18.10;99.90
37050;DHT22;22958;51.232;6.826;2022-08-19T03:12:42;18.00;99.90
37050;DHT22;22958;51.232;6.826;2022-08-19T03:15:08;18.00;99.90
37050;DHT22;22958;51.232;6.826;2022-08-19T03:17:34;17.90;99.90
37050;DHT22;22958;51.232;6.826;2022-08-19T03:19:59;17.90;99.90
37050;DHT22;22958;51.232;6.826;2022-08-19T03:22:25;17.90;99.90
37050;DHT22;22958;51.232;6.826;2022-08-19T03:24:50;17.90;99.90
37050;DHT22;22958;51.232;6.826;2022-08-19T03:27:16;17.90;99.90
37050;DHT22;22958;51.232;6.826;2022-08-19T03:29:42;17.90;99.90
37050;DHT22;22958;51.232;6.826;2022-08-19T03:32:08;17.90;99.90
37050;DHT22;22958;51.232;6.826;2022-08-19T03:34:34;17.80;99.90
37050;DHT22;22958;51.232;6.826;2022-08-19T03:37:04;17.80;99.90
37050;DHT22;22958;51.232;6.826;2022-08-19T03:39:30;17.80;99.90
37050;DHT22;22958;51.232;6.826;2022-08-19T03:41:55;17.70;99.90
37050;DHT22;22958;51.232;6.826;2022-08-19T03:44:22;17.80;99.90
37050;DHT22;22958;51.232;6.826;2022-08-19T03:46:49;17.80;99.90
37050;DHT22;22958;51.232;6.826;2022-08-19T03:49:15;17.90;99.90
37050;DHT22;22958;51.232;6.826;2022-08-19T03:51:41;17.80;99.90
37050;DHT22;22958;51.232;6.826;2022-08-19T03:54:07;17.80;99.90
37050;DHT22;22958;51.232;6.826;2022-08-19T03:56:33;17.80;99.90
37050;DHT22;22958;51.232;6.826;2022-08-19T03:58:59;17.70;99.90
37050;DHT22;22958;51.232;6.826;2022-08-19T04:01:26;17.70;99.90
37050;DHT22;22958;51.232;6.826;2022-08-19T04:03:52;17.90;99.90
37050;DHT22;22958;51.232;6.826;2022-08-19T04:06:28;18.00;99.90
37050;DHT22;22958;51.232;6.826;2022-08-19T04:08:54;17.90;99.90
37050;DHT22;22958;51.232;6.826;2022-08-19T04:11:22;17.90;99.90
37050;DHT22;22958;51.232;6.826;2022-08-19T04:13:48;17.90;99.90
37050;DHT22;22958;51.232;6.826;2022-08-19T04:16:14;17.80;99.90
37050;DHT22;22958;51.232;6.826;2022-08-19T04:18:40;17.80;99.90
37050;DHT22;22958;51.232;6.826;2022-08-19T04:21:07;17.70;99.90
37050;DHT22;22958;51.232;6.826;2022-08-19T04:23:33;17.70;99.90
37050;DHT22;22958;51.232;6.826;2022-08-19T04:26:00;17.60;99.90
37050;DHT22;22958;51.232;6.826;2022-08-19T04:28:25;17.60;99.90
37050;DHT22;22958;51.232;6.826;2022-08-19T04:30:52;17.70;99.90
37050;DHT22;22958;51.232;6.826;2022-08-19T04:33:19;17.60;99.90
37050;DHT22;22958;51.232;6.826;2022-08-19T04:35:45;17.60;99.90
37050;DHT22;22958;51.232;6.826;2022-08-19T04:38:13;17.60;99.90
37050;DHT22;22958;51.232;6.826;2022-08-19T04:40:42;17.60;99.90
37050;DHT22;22958;51.232;6.826;2022-08-19T04:43:27;17.60;99.90
37050;DHT22;22958;51.232;6.826;2022-08-19T04:45:52;17.70;99.90
37050;DHT22;22958;51.232;6.826;2022-08-19T04:48:18;17.70;99.90
37050;DHT22;22958;51.232;6.826;2022-08-19T04:50:57;17.70;99.90
37050;DHT22;22958;51.232;6.826;2022-08-19T04:53:27;17.70;99.90
37050;DHT22;22958;51.232;6.826;2022-08-19T04:55:54;17.80;99.90
37050;DHT22;22958;51.232;6.826;2022-08-19T04:58:19;17.80;99.90
37050;DHT22;22958;51.232;6.826;2022-08-19T05:00:45;17.80;99.90
37050;DHT22;22958;51.232;6.826;2022-08-19T05:03:10;17.80;99.90
37050;DHT22;22958;51.232;6.826;2022-08-19T05:05:42;17.70;99.90
37050;DHT22;22958;51.232;6.826;2022-08-19T05:08:08;17.70;99.90
37050;DHT22;22958;51.232;6.826;2022-08-19T05:10:37;17.80;99.90
37050;DHT22;22958;51.232;6.826;2022-08-19T05:13:03;17.80;99.90
37050;DHT22;22958;51.232;6.826;2022-08-19T05:15:29;17.90;99.90
37050;DHT22;22958;51.232;6.826;2022-08-19T05:17:54;17.70;99.90
37050;DHT22;22958;51.232;6.826;2022-08-19T05:20:38;17.80;99.90
37050;DHT22;22958;51.232;6.826;2022-08-19T05:23:22;17.90;99.90
37050;DHT22;22958;51.232;6.826;2022-08-19T05:25:48;18.10;99.90
37050;DHT22;22958;51.232;6.826;2022-08-19T05:28:14;18.10;99.90
37050;DHT22;22958;51.232;6.826;2022-08-19T05:30:39;18.10;99.90
37050;DHT22;22958;51.232;6.826;2022-08-19T05:33:06;18.20;99.90
37050;DHT22;22958;51.232;6.826;2022-08-19T05:35:35;18.20;99.90
37050;DHT22;22958;51.232;6.826;2022-08-19T05:38:00;18.30;99.90
37050;DHT22;22958;51.232;6.826;2022-08-19T05:40:26;18.50;99.90
37050;DHT22;22958;51.232;6.826;2022-08-19T05:42:51;18.50;99.90
37050;DHT22;22958;51.232;6.826;2022-08-19T05:45:18;18.50;99.90
37050;DHT22;22958;51.232;6.826;2022-08-19T05:47:44;18.50;99.90
37050;DHT22;22958;51.232;6.826;2022-08-19T05:50:10;18.70;99.90
37050;DHT22;22958;51.232;6.826;2022-08-19T05:52:36;18.80;99.90
37050;DHT22;22958;51.232;6.826;2022-08-19T05:55:03;18.90;99.90
37050;DHT22;22958;51.232;6.826;2022-08-19T05:57:28;18.90;99.90
37050;DHT22;22958;51.232;6.826;2022-08-19T05:59:54;19.10;99.90
37050;DHT22;22958;51.232;6.826;2022-08-19T06:02:21;19.10;99.90
37050;DHT22;22958;51.232;6.826;2022-08-19T06:04:47;19.20;99.90
37050;DHT22;22958;51.232;6.826;2022-08-19T06:07:13;19.30;99.90
37050;DHT22;22958;51.232;6.826;2022-08-19T06:09:38;19.40;99.90
37050;DHT22;22958;51.232;6.826;2022-08-19T06:12:04;19.30;99.90
37050;DHT22;22958;51.232;6.826;2022-08-19T06:14:31;19.50;99.90
37050;DHT22;22958;51.232;6.826;2022-08-19T06:16:57;19.60;99.90
37050;DHT22;22958;51.232;6.826;2022-08-19T06:19:25;19.70;99.90
37050;DHT22;22958;51.232;6.826;2022-08-19T06:21:51;19.70;99.90
37050;DHT22;22958;51.232;6.826;2022-08-19T06:24:18;19.70;99.90
37050;DHT22;22958;51.232;6.826;2022-08-19T06:26:45;19.80;99.90
37050;DHT22;22958;51.232;6.826;2022-08-19T06:29:12;19.70;99.90
37050;DHT22;22958;51.232;6.826;2022-08-19T06:31:40;19.60;99.90
37050;DHT22;22958;51.232;6.826;2022-08-19T06:34:05;19.70;99.90
37050;DHT22;22958;51.232;6.826;2022-08-19T06:36:32;19.80;99.90
37050;DHT22;22958;51.232;6.826;2022-08-19T06:39:03;19.70;99.90
37050;DHT22;22958;51.232;6.826;2022-08-19T06:41:28;19.70;99.90
37050;DHT22;22958;51.232;6.826;2022-08-19T06:43:55;19.80;99.90
37050;DHT22;22958;51.232;6.826;2022-08-19T06:46:21;19.70;99.90
37050;DHT22;22958;51.232;6.826;2022-08-19T06:48:46;19.70;99.90
37050;DHT22;22958;51.232;6.826;2022-08-19T06:51:13;19.70;99.90
37050;DHT22;22958;51.232;6.826;2022-08-19T06:53:40;19.80;99.90
37050;DHT22;22958;51.232;6.826;2022-08-19T06:56:06;19.70;99.90
37050;DHT22;22958;51.232;6.826;2022-08-19T06:58:32;19.80;99.90
37050;DHT22;22958;51.232;6.826;2022-08-19T07:00:58;19.90;99.90
37050;DHT22;22958;51.232;6.826;2022-08-19T07:03:28;20.10;99.90
37050;DHT22;22958;51.232;6.826;2022-08-19T07:05:54;20.20;99.90
37050;DHT22;22958;51.232;6.826;2022-08-19T07:08:19;20.30;99.90
37050;DHT22;22958;51.232;6.826;2022-08-19T07:10:45;20.30;99.90
37050;DHT22;22958;51.232;6.826;2022-08-19T07:13:10;20.40;99.90
37050;DHT22;22958;51.232;6.826;2022-08-19T07:15:36;20.40;99.90
37050;DHT22;22958;51.232;6.826;2022-08-19T07:18:02;20.50;99.90
37050;DHT22;22958;51.232;6.826;2022-08-19T07:20:28;20.60;99.90
37050;DHT22;22958;51.232;6.826;2022-08-19T07:22:53;20.60;99.90
37050;DHT22;22958;51.232;6.826;2022-08-19T07:25:19;20.70;99.90
37050;DHT22;22958;51.232;6.826;2022-08-19T07:27:48;20.60;99.90
37050;DHT22;22958;51.232;6.826;2022-08-19T07:30:13;20.50;99.90
37050;DHT22;22958;51.232;6.826;2022-08-19T07:32:39;20.50;99.90
37050;DHT22;22958;51.232;6.826;2022-08-19T07:35:05;20.40;99.90
37050;DHT22;22958;51.232;6.826;2022-08-19T07:37:31;20.40;99.90
37050;DHT22;22958;51.232;6.826;2022-08-19T07:39:56;20.30;99.90
37050;DHT22;22958;51.232;6.826;2022-08-19T07:42:22;20.30;99.90
37050;DHT22;22958;51.232;6.826;2022-08-19T07:44:47;20.40;99.90
37050;DHT22;22958;51.232;6.826;2022-08-19T07:47:13;20.40;99.90
37050;DHT22;22958;51.232;6.826;2022-08-19T07:49:40;20.50;99.90
37050;DHT22;22958;51.232;6.826;2022-08-19T07:52:07;20.60;99.90
37050;DHT22;22958;51.232;6.826;2022-08-19T07:54:34;20.80;99.90
37050;DHT22;22958;51.232;6.826;2022-08-19T07:57:00;21.00;99.90
37050;DHT22;22958;51.232;6.826;2022-08-19T07:59:26;21.20;99.90
37050;DHT22;22958;51.232;6.826;2022-08-19T08:01:53;21.50;99.90
37050;DHT22;22958;51.232;6.826;2022-08-19T08:04:19;21.90;99.90
37050;DHT22;22958;51.232;6.826;2022-08-19T08:07:04;22.40;99.90
37050;DHT22;22958;51.232;6.826;2022-08-19T08:09:48;22.80;99.90
37050;DHT22;22958;51.232;6.826;2022-08-19T08:12:18;23.20;99.90
37050;DHT22;22958;51.232;6.826;2022-08-19T08:14:48;23.20;99.90
37050;DHT22;22958;51.232;6.826;2022-08-19T08:17:15;23.20;99.90
37050;DHT22;22958;51.232;6.826;2022-08-19T08:19:41;23.00;99.90
37050;DHT22;22958;51.232;6.826;2022-08-19T08:22:07;22.80;99.90
37050;DHT22;22958;51.232;6.826;2022-08-19T08:24:33;22.80;99.90
37050;DHT22;22958;51.232;6.826;2022-08-19T08:27:00;22.80;99.90
37050;DHT22;22958;51.232;6.826;2022-08-19T08:29:27;22.60;99.90
37050;DHT22;22958;51.232;6.826;2022-08-19T08:31:52;22.00;99.90
37050;DHT22;22958;51.232;6.826;2022-08-19T08:34:19;22.20;99.90
37050;DHT22;22958;51.232;6.826;2022-08-19T08:36:45;22.30;99.90
37050;DHT22;22958;51.232;6.826;2022-08-19T08:39:11;22.40;99.90
37050;DHT22;22958;51.232;6.826;2022-08-19T08:44:27;22.80;99.90
37050;DHT22;22958;51.232;6.826;2022-08-19T08:46:55;22.90;99.90
37050;DHT22;22958;51.232;6.826;2022-08-19T08:49:41;23.30;99.90
37050;DHT22;22958;51.232;6.826;2022-08-19T08:52:20;23.30;99.90
37050;DHT22;22958;51.232;6.826;2022-08-19T08:54:48;22.80;99.90
37050;DHT22;22958;51.232;6.826;2022-08-19T08:57:19;22.30;99.90
37050;DHT22;22958;51.232;6.826;2022-08-19T08:59:47;22.60;99.90
37050;DHT22;22958;51.232;6.826;2022-08-19T09:02:16;22.90;99.90
37050;DHT22;22958;51.232;6.826;2022-08-19T09:04:42;23.40;99.90
37050;DHT22;22958;51.232;6.826;2022-08-19T09:09:46;22.80;99.90
37050;DHT22;22958;51.232;6.826;2022-08-19T09:14:53;22.50;99.90
37050;DHT22;22958;51.232;6.826;2022-08-19T09:17:22;22.70;99.90
37050;DHT22;22958;51.232;6.826;2022-08-19T09:19:59;22.60;99.90
37050;DHT22;22958;51.232;6.826;2022-08-19T09:22:30;22.90;99.90
37050;DHT22;22958;51.232;6.826;2022-08-19T09:24:55;23.30;99.90
37050;DHT22;22958;51.232;6.826;2022-08-19T09:27:21;23.20;99.90
37050;DHT22;22958;51.232;6.826;2022-08-19T09:29:50;23.30;99.90
37050;DHT22;22958;51.232;6.826;2022-08-19T09:32:15;23.30;99.90
37050;DHT22;22958;51.232;6.826;2022-08-19T09:34:42;23.10;99.90
37050;DHT22;22958;51.232;6.826;2022-08-19T09:37:08;23.10;99.90
37050;DHT22;22958;51.232;6.826;2022-08-19T09:39:34;23.30;99.90
37050;DHT22;22958;51.232;6.826;2022-08-19T09:41:59;23.30;99.90
37050;DHT22;22958;51.232;6.826;2022-08-19T09:44:24;23.40;99.90
37050;DHT22;22958;51.232;6.826;2022-08-19T09:46:50;23.60;99.90
37050;DHT22;22958;51.232;6.826;2022-08-19T09:49:17;23.80;99.90
37050;DHT22;22958;51.232;6.826;2022-08-19T09:51:42;23.60;99.90
37050;DHT22;22958;51.232;6.826;2022-08-19T09:54:08;23.60;99.90
37050;DHT22;22958;51.232;6.826;2022-08-19T09:56:33;23.80;99.90
37050;DHT22;22958;51.232;6.826;2022-08-19T09:58:59;24.00;99.90
37050;DHT22;22958;51.232;6.826;2022-08-19T10:01:25;23.60;99.90
37050;DHT22;22958;51.232;6.826;2022-08-19T10:03:53;23.80;99.90
37050;DHT22;22958;51.232;6.826;2022-08-19T10:06:25;24.00;99.90
37050;DHT22;22958;51.232;6.826;2022-08-19T10:08:51;24.00;99.90
37050;DHT22;22958;51.232;6.826;2022-08-19T10:11:17;24.10;99.90
37050;DHT22;22958;51.232;6.826;2022-08-19T10:13:43;24.20;99.90
37050;DHT22;22958;51.232;6.826;2022-08-19T10:16:11;24.70;99.90
37050;DHT22;22958;51.232;6.826;2022-08-19T10:18:36;24.50;99.90
37050;DHT22;22958;51.232;6.826;2022-08-19T10:21:04;24.60;99.90
37050;DHT22;22958;51.232;6.826;2022-08-19T10:23:32;25.10;99.90
37050;DHT22;22958;51.232;6.826;2022-08-19T10:25:59;25.30;99.90
37050;DHT22;22958;51.232;6.826;2022-08-19T10:28:24;25.10;99.90
37050;DHT22;22958;51.232;6.826;2022-08-19T10:30:50;25.20;99.90
37050;DHT22;22958;51.232;6.826;2022-08-19T10:33:15;25.00;99.90
37050;DHT22;22958;51.232;6.826;2022-08-19T10:35:41;24.90;99.90
37050;DHT22;22958;51.232;6.826;2022-08-19T10:38:06;24.90;99.90
37050;DHT22;22958;51.232;6.826;2022-08-19T10:40:31;25.50;99.90
37050;DHT22;22958;51.232;6.826;2022-08-19T10:42:57;25.90;99.90
37050;DHT22;22958;51.232;6.826;2022-08-19T10:45:23;25.10;99.90
37050;DHT22;22958;51.232;6.826;2022-08-19T10:47:50;25.10;99.90
37050;DHT22;22958;51.232;6.826;2022-08-19T10:50:16;24.60;99.90
37050;DHT22;22958;51.232;6.826;2022-08-19T10:53:03;24.60;99.90
37050;DHT22;22958;51.232;6.826;2022-08-19T10:55:29;24.20;99.90
37050;DHT22;22958;51.232;6.826;2022-08-19T10:58:14;24.30;99.90
37050;DHT22;22958;51.232;6.826;2022-08-19T11:00:40;24.80;99.90
37050;DHT22;22958;51.232;6.826;2022-08-19T11:03:05;25.30;99.90
37050;DHT22;22958;51.232;6.826;2022-08-19T11:05:31;25.30;99.90
37050;DHT22;22958;51.232;6.826;2022-08-19T11:07:56;25.50;99.90
37050;DHT22;22958;51.232;6.826;2022-08-19T11:10:22;25.70;99.90
37050;DHT22;22958;51.232;6.826;2022-08-19T11:12:48;25.90;99.90
37050;DHT22;22958;51.232;6.826;2022-08-19T11:15:19;25.90;99.90
37050;DHT22;22958;51.232;6.826;2022-08-19T11:17:44;26.20;99.90
37050;DHT22;22958;51.232;6.826;2022-08-19T11:20:11;26.70;99.90
37050;DHT22;22958;51.232;6.826;2022-08-19T11:22:37;27.50;99.90
37050;DHT22;22958;51.232;6.826;2022-08-19T11:25:03;27.80;99.90
37050;DHT22;22958;51.232;6.826;2022-08-19T11:27:29;28.30;99.90
37050;DHT22;22958;51.232;6.826;2022-08-19T11:29:54;28.70;99.90
37050;DHT22;22958;51.232;6.826;2022-08-19T11:32:19;28.70;99.00
37050;DHT22;22958;51.232;6.826;2022-08-19T11:34:45;29.10;97.90
37050;DHT22;22958;51.232;6.826;2022-08-19T11:37:10;29.10;96.80
37050;DHT22;22958;51.232;6.826;2022-08-19T11:39:36;28.50;98.60
37050;DHT22;22958;51.232;6.826;2022-08-19T11:42:02;27.90;98.50
37050;DHT22;22958;51.232;6.826;2022-08-19T11:44:48;27.20;99.90
37050;DHT22;22958;51.232;6.826;2022-08-19T11:47:14;27.80;99.90
37050;DHT22;22958;51.232;6.826;2022-08-19T11:49:39;29.00;96.50
37050;DHT22;22958;51.232;6.826;2022-08-19T11:52:05;29.40;93.10
37050;DHT22;22958;51.232;6.826;2022-08-19T11:54:30;28.80;92.70
37050;DHT22;22958;51.232;6.826;2022-08-19T11:56:56;28.80;92.00
37050;DHT22;22958;51.232;6.826;2022-08-19T11:59:21;27.80;94.30
37050;DHT22;22958;51.232;6.826;2022-08-19T12:01:47;28.60;93.40
37050;DHT22;22958;51.232;6.826;2022-08-19T12:04:12;30.00;86.50
37050;DHT22;22958;51.232;6.826;2022-08-19T12:06:38;29.50;85.80
37050;DHT22;22958;51.232;6.826;2022-08-19T12:09:05;27.70;90.70
37050;DHT22;22958;51.232;6.826;2022-08-19T12:11:31;27.80;91.80
37050;DHT22;22958;51.232;6.826;2022-08-19T12:13:57;28.70;91.00
37050;DHT22;22958;51.232;6.826;2022-08-19T12:16:24;29.80;86.20
37050;DHT22;22958;51.232;6.826;2022-08-19T12:18:50;30.80;81.40
37050;DHT22;22958;51.232;6.826;2022-08-19T12:21:17;31.70;73.10
37050;DHT22;22958;51.232;6.826;2022-08-19T12:23:46;31.10;72.80
37050;DHT22;22958;51.232;6.826;2022-08-19T12:26:11;33.30;64.50
37050;DHT22;22958;51.232;6.826;2022-08-19T12:28:37;34.30;59.40
37050;DHT22;22958;51.232;6.826;2022-08-19T12:31:03;33.10;61.30
37050;DHT22;22958;51.232;6.826;2022-08-19T12:33:28;31.80;62.30
37050;DHT22;22958;51.232;6.826;2022-08-19T12:35:54;29.10;67.50
37050;DHT22;22958;51.232;6.826;2022-08-19T12:38:20;28.00;73.00
37050;DHT22;22958;51.232;6.826;2022-08-19T12:40:45;29.20;70.30
37050;DHT22;22958;51.232;6.826;2022-08-19T12:43:11;28.90;71.40
37050;DHT22;22958;51.232;6.826;2022-08-19T12:45:37;31.50;67.20
37050;DHT22;22958;51.232;6.826;2022-08-19T12:48:03;32.90;62.10
37050;DHT22;22958;51.232;6.826;2022-08-19T12:50:28;32.70;61.70
37050;DHT22;22958;51.232;6.826;2022-08-19T12:52:55;31.70;62.70
37050;DHT22;22958;51.232;6.826;2022-08-19T12:55:21;30.00;65.50
37050;DHT22;22958;51.232;6.826;2022-08-19T12:57:46;30.00;68.80
37050;DHT22;22958;51.232;6.826;2022-08-19T13:00:15;31.30;64.00
37050;DHT22;22958;51.232;6.826;2022-08-19T13:02:42;30.70;65.50
37050;DHT22;22958;51.232;6.826;2022-08-19T13:05:10;30.80;64.50
37050;DHT22;22958;51.232;6.826;2022-08-19T13:07:37;31.60;62.50
37050;DHT22;22958;51.232;6.826;2022-08-19T13:10:04;31.60;60.50
37050;DHT22;22958;51.232;6.826;2022-08-19T13:12:30;32.60;58.90
37050;DHT22;22958;51.232;6.826;2022-08-19T13:14:55;33.00;57.30
37050;DHT22;22958;51.232;6.826;2022-08-19T13:17:21;31.90;58.10
37050;DHT22;22958;51.232;6.826;2022-08-19T13:19:46;29.50;61.10
37050;DHT22;22958;51.232;6.826;2022-08-19T13:22:12;28.00;67.00
37050;DHT22;22958;51.232;6.826;2022-08-19T13:24:37;28.10;68.90
37050;DHT22;22958;51.232;6.826;2022-08-19T13:27:04;29.60;65.60
37050;DHT22;22958;51.232;6.826;2022-08-19T13:29:29;31.90;62.00
37050;DHT22;22958;51.232;6.826;2022-08-19T13:32:13;30.90;59.60
37050;DHT22;22958;51.232;6.826;2022-08-19T13:34:58;30.80;60.50
37050;DHT22;22958;51.232;6.826;2022-08-19T13:37:23;32.90;57.60
37050;DHT22;22958;51.232;6.826;2022-08-19T13:40:14;32.70;55.30
37050;DHT22;22958;51.232;6.826;2022-08-19T13:42:42;31.30;56.30
37050;DHT22;22958;51.232;6.826;2022-08-19T13:45:07;30.00;58.00
37050;DHT22;22958;51.232;6.826;2022-08-19T13:47:34;28.80;60.50
37050;DHT22;22958;51.232;6.826;2022-08-19T13:50:02;28.60;61.50
37050;DHT22;22958;51.232;6.826;2022-08-19T13:52:27;29.90;60.10
37050;DHT22;22958;51.232;6.826;2022-08-19T13:54:53;31.10;57.90
37050;DHT22;22958;51.232;6.826;2022-08-19T13:57:19;31.80;57.40
37050;DHT22;22958;51.232;6.826;2022-08-19T13:59:44;31.80;56.10
37050;DHT22;22958;51.232;6.826;2022-08-19T14:02:10;32.10;55.20
37050;DHT22;22958;51.232;6.826;2022-08-19T14:04:36;32.70;55.40
37050;DHT22;22958;51.232;6.826;2022-08-19T14:07:02;33.90;53.00
37050;DHT22;22958;51.232;6.826;2022-08-19T14:09:28;34.20;52.70
37050;DHT22;22958;51.232;6.826;2022-08-19T14:11:54;36.00;51.30
37050;DHT22;22958;51.232;6.826;2022-08-19T14:14:20;34.20;50.60
37050;DHT22;22958;51.232;6.826;2022-08-19T14:16:46;34.50;48.50
37050;DHT22;22958;51.232;6.826;2022-08-19T14:19:12;33.70;49.10
37050;DHT22;22958;51.232;6.826;2022-08-19T14:21:37;33.90;50.20
37050;DHT22;22958;51.232;6.826;2022-08-19T14:24:04;36.00;48.40
37050;DHT22;22958;51.232;6.826;2022-08-19T14:26:29;32.40;50.80
37050;DHT22;22958;51.232;6.826;2022-08-19T14:28:56;33.90;51.00
37050;DHT22;22958;51.232;6.826;2022-08-19T14:31:22;35.80;48.30
37050;DHT22;22958;51.232;6.826;2022-08-19T14:33:49;35.30;47.70
37050;DHT22;22958;51.232;6.826;2022-08-19T14:36:15;33.00;49.00
37050;DHT22;22958;51.232;6.826;2022-08-19T14:38:41;33.10;50.30
37050;DHT22;22958;51.232;6.826;2022-08-19T14:43:33;30.00;53.70
37050;DHT22;22958;51.232;6.826;2022-08-19T14:45:58;31.60;53.40
37050;DHT22;22958;51.232;6.826;2022-08-19T14:48:24;31.80;52.40
37050;DHT22;22958;51.232;6.826;2022-08-19T14:50:50;31.90;52.50
37050;DHT22;22958;51.232;6.826;2022-08-19T14:53:15;31.90;52.50
37050;DHT22;22958;51.232;6.826;2022-08-19T14:55:42;32.40;51.90
37050;DHT22;22958;51.232;6.826;2022-08-19T14:58:07;33.30;49.50
37050;DHT22;22958;51.232;6.826;2022-08-19T15:00:33;31.60;51.20
37050;DHT22;22958;51.232;6.826;2022-08-19T15:02:59;29.20;54.20
37050;DHT22;22958;51.232;6.826;2022-08-19T15:05:24;28.00;57.30
37050;DHT22;22958;51.232;6.826;2022-08-19T15:07:50;27.70;59.00
37050;DHT22;22958;51.232;6.826;2022-08-19T15:10:15;28.30;59.40
37050;DHT22;22958;51.232;6.826;2022-08-19T15:12:41;29.80;57.90
37050;DHT22;22958;51.232;6.826;2022-08-19T15:15:11;29.80;56.80
37050;DHT22;22958;51.232;6.826;2022-08-19T15:17:40;28.70;57.80
37050;DHT22;22958;51.232;6.826;2022-08-19T15:20:07;28.20;59.70
37050;DHT22;22958;51.232;6.826;2022-08-19T15:22:32;27.80;60.60
37050;DHT22;22958;51.232;6.826;2022-08-19T15:24:59;27.60;61.20
37050;DHT22;22958;51.232;6.826;2022-08-19T15:27:26;27.10;62.90
37050;DHT22;22958;51.232;6.826;2022-08-19T15:29:51;27.30;62.90
37050;DHT22;22958;51.232;6.826;2022-08-19T15:32:17;27.40;62.60
37050;DHT22;22958;51.232;6.826;2022-08-19T15:34:42;27.40;63.50
37050;DHT22;22958;51.232;6.826;2022-08-19T15:37:08;27.00;63.60
37050;DHT22;22958;51.232;6.826;2022-08-19T15:39:33;27.10;65.10